Time;durP1;ratioP1;P1;durP2;ratioP2;P2;SDS_P1;SDS_P2;PMS_P1;PMS_P2;Temp;Humidity;BMP_temperature;BMP_pressure;BME280_temperature;BME280_humidity;BME280_pressure;Samples;Min_cycle;Max_cycle;Signal;HPM_P1;HPM_P2
2021/12/21 00:00:00;;;;;;;28.58;13.15;;;;;;;3.17;96.49;99141.94;10499960;28;20037;-72
2021/12/21 00:05:01;;;;;;;24.70;12.93;;;;;;;2.70;97.19;99063.47;10499254;28;20048;-72
2021/12/21 00:10:03;;;;;;;29.75;13.80;;;;;;;3.01;96.69;99099.84;10484613;28;20044;-71
2021/12/21 00:15:20;;;;;;;26.48;13.60;;;;;;;3.02;96.52;99086.56;10458486;28;20143;-72
2021/12/21 00:25:40;;;;;;;24.98;12.13;;;;;;;2.85;96.77;99076.91;10457342;28;20041;-71
2021/12/21 00:30:41;;;;;;;32.20;14.15;;;;;;;3.08;96.89;99091.22;10457389;28;20492;-71
2021/12/21 00:35:42;;;;;;;30.63;14.73;;;;;;;3.23;97.07;99109.03;10458455;28;20033;-72
2021/12/21 00:40:43;;;;;;;28.98;14.55;;;;;;;3.01;96.85;99074.41;10490250;28;20040;-72
2021/12/21 00:45:44;;;;;;;27.60;14.00;;;;;;;2.78;96.67;99032.06;10498076;28;20067;-72
2021/12/21 00:50:45;;;;;;;32.38;17.60;;;;;;;3.26;96.42;99127.09;10480277;28;20082;-72
2021/12/21 00:55:45;;;;;;;28.13;14.30;;;;;;;3.04;96.81;99089.03;10497867;28;20040;-72
2021/12/21 01:00:47;;;;;;;25.58;13.75;;;;;;;2.94;97.26;99099.59;10498044;28;20093;-74
2021/12/21 01:05:55;;;;;;;29.98;12.77;;;;;;;3.28;97.60;99130.41;10497784;28;20560;-72
2021/12/21 01:16:23;;;;;;;26.17;12.75;;;;;;;3.34;97.00;99132.44;10497850;28;20137;-72
2021/12/21 01:21:28;;;;;;;32.03;13.85;;;;;;;2.07;97.47;98924.63;10497162;28;20053;-72
2021/12/21 01:37:00;;;;;;;23.40;11.60;;;;;;;3.36;97.51;99126.06;10497029;28;20044;-72
2021/12/21 01:42:15;;;;;;;25.27;12.70;;;;;;;2.48;98.39;98972.97;10496053;28;20511;-72
2021/12/21 01:52:35;;;;;;;24.38;12.07;;;;;;;3.07;98.21;99089.56;10496718;28;20135;-72
2021/12/21 01:57:36;;;;;;;24.77;12.50;;;;;;;3.47;97.99;99156.50;10496461;28;20562;-75
2021/12/21 02:02:37;;;;;;;28.15;12.30;;;;;;;3.38;97.95;99128.50;10496118;28;20041;-73
2021/12/21 02:07:39;;;;;;;25.52;12.27;;;;;;;3.39;98.04;99143.31;10495997;28;20496;-73
2021/12/21 02:12:40;;;;;;;26.02;12.18;;;;;;;2.80;98.34;99047.66;10495702;28;20147;-72
2021/12/21 02:23:09;;;;;;;23.35;11.30;;;;;;;3.38;98.82;99146.88;10496436;28;20047;-72
2021/12/21 02:28:23;;;;;;;19.55;10.60;;;;;;;3.45;99.20;99163.69;10499371;28;20082;-72
2021/12/21 02:33:26;;;;;;;20.48;9.85;;;;;;;3.62;98.33;99183.88;10503843;28;20392;-72
2021/12/21 02:38:28;;;;;;;18.08;8.90;;;;;;;3.08;98.51;99119.22;10503278;28;20520;-71
2021/12/21 02:43:29;;;;;;;18.13;7.97;;;;;;;3.53;99.13;99183.94;10503012;28;20120;-72
2021/12/21 02:48:31;;;;;;;16.58;8.43;;;;;;;3.31;98.78;99140.59;10504007;28;20139;-72
2021/12/21 02:53:32;;;;;;;15.63;8.27;;;;;;;3.73;99.11;99219.56;10502698;28;20389;-73
2021/12/21 02:58:32;;;;;;;15.40;8.10;;;;;;;3.47;98.54;99172.25;10500832;28;20052;-72
2021/12/21 03:03:33;;;;;;;16.02;7.95;;;;;;;3.82;98.95;99236.22;10485811;28;20044;-73
2021/12/21 03:08:55;;;;;;;13.90;7.70;;;;;;;3.61;98.96;99176.94;10499575;28;20040;-73
2021/12/21 03:14:05;;;;;;;18.90;7.95;;;;;;;3.70;97.87;99217.25;10502361;28;20523;-73
2021/12/21 03:19:08;;;;;;;13.88;6.10;;;;;;;3.79;97.89;99247.03;10501648;28;20449;-73
2021/12/21 03:24:09;;;;;;;17.63;6.53;;;;;;;3.42;97.88;99172.69;10501863;28;20047;-73
2021/12/21 03:29:10;;;;;;;12.32;6.30;;;;;;;2.71;98.03;99065.94;10501863;28;20040;-74
2021/12/21 03:34:11;;;;;;;11.20;6.13;;;;;;;2.96;98.39;99102.88;10499395;28;20041;-73
2021/12/21 03:39:17;;;;;;;11.27;6.07;;;;;;;3.88;98.56;99232.97;10499572;28;20094;-73
2021/12/21 03:44:19;;;;;;;20.95;6.53;;;;;;;3.90;97.46;99244.19;10501037;28;20102;-73
2021/12/21 03:54:35;;;;;;;16.27;6.18;;;;;;;3.78;97.99;99261.16;10501548;28;20044;-73
2021/12/21 03:59:36;;;;;;;10.93;6.00;;;;;;;3.76;98.23;99260.47;10498559;28;20067;-73
2021/12/21 04:04:37;;;;;;;10.65;5.75;;;;;;;3.32;98.10;99218.38;10491147;28;20461;-72
2021/12/21 04:09:38;;;;;;;13.43;5.95;;;;;;;3.47;98.11;99237.91;10494360;28;20567;-74
2021/12/21 04:14:40;;;;;;;14.63;6.07;;;;;;;3.80;97.62;99295.97;10494533;28;20040;-74
2021/12/21 04:19:41;;;;;;;15.70;6.78;;;;;;;3.33;97.96;99277.78;10494070;28;20067;-75
2021/12/21 04:24:42;;;;;;;16.05;7.80;;;;;;;2.26;97.83;99155.88;10478850;28;20072;-70
2021/12/21 04:29:43;;;;;;;19.48;9.07;;;;;;;3.54;98.06;99383.38;10458517;28;20039;-70
2021/12/21 04:34:44;;;;;;;16.33;8.38;;;;;;;2.26;98.30;99221.38;10457877;28;20638;-72
2021/12/21 04:39:56;;;;;;;20.35;9.80;;;;;;;3.15;98.80;99365.16;10457666;28;20163;-74
2021/12/21 04:44:57;;;;;;;12.60;6.50;;;;;;;3.47;98.18;99426.94;10456461;28;20044;-78
2021/12/21 04:49:58;;;;;;;12.30;5.22;;;;;;;2.74;98.04;99342.78;10455060;28;20076;-73
2021/12/21 04:54:58;;;;;;;12.88;5.40;;;;;;;2.15;98.35;99308.00;10473179;28;20515;-73
2021/12/21 04:59:59;;;;;;;6.57;3.20;;;;;;;2.94;98.75;99477.38;10470743;28;20055;-73
2021/12/21 05:05:00;;;;;;;9.30;3.53;;;;;;;2.48;98.45;99468.41;10456377;28;20048;-74
2021/12/21 05:10:03;;;;;;;3.38;1.73;;;;;;;2.15;98.80;99498.44;10456584;28;20033;-73
2021/12/21 05:15:06;;;;;;;4.72;2.53;;;;;;;2.00;98.54;99529.41;10455579;28;20033;-73
2021/12/21 05:20:07;;;;;;;7.20;2.72;;;;;;;1.80;99.19;99518.88;10455930;28;20485;-73
2021/12/21 05:25:08;;;;;;;3.72;1.88;;;;;;;1.52;98.71;99509.09;10437974;28;20049;-74
2021/12/21 05:30:09;;;;;;;5.63;2.80;;;;;;;1.20;98.88;99477.81;10455480;28;20050;-74
2021/12/21 05:35:10;;;;;;;5.82;2.70;;;;;;;1.18;99.20;99479.75;10456048;28;20119;-73
2021/12/21 05:40:14;;;;;;;8.45;3.70;;;;;;;1.18;99.79;99503.28;10455510;28;20041;-73
2021/12/21 05:45:17;;;;;;;7.65;3.42;;;;;;;1.18;100.00;99532.06;10454672;28;20041;-74
2021/12/21 05:50:19;;;;;;;7.25;3.80;;;;;;;1.04;100.00;99517.50;10454962;28;20084;-74
2021/12/21 05:55:21;;;;;;;5.50;2.88;;;;;;;1.48;100.00;99583.63;10455194;28;20041;-73
2021/12/21 06:00:26;;;;;;;6.85;2.80;;;;;;;1.35;100.00;99582.03;10453891;28;20037;-73
2021/12/21 06:05:27;;;;;;;5.03;2.42;;;;;;;0.95;100.00;99528.72;10454573;28;20377;-74
2021/12/21 06:10:33;;;;;;;3.67;1.50;;;;;;;1.46;100.00;99625.63;10454249;28;20456;-73
2021/12/21 06:15:46;;;;;;;5.90;1.80;;;;;;;1.28;100.00;99609.66;10453797;28;20075;-74
2021/12/21 06:26:10;;;;;;;2.75;1.30;;;;;;;1.31;100.00;99580.63;10453724;28;20132;-74
2021/12/21 06:31:12;;;;;;;2.50;1.30;;;;;;;1.30;100.00;99578.13;10455064;28;20064;-74
2021/12/21 06:36:13;;;;;;;2.85;1.42;;;;;;;1.66;100.00;99616.09;10454528;28;20055;-73
2021/12/21 06:41:14;;;;;;;6.13;1.13;;;;;;;-0.59;99.98;99238.28;10453182;28;20143;-73
2021/12/21 06:52:00;;;;;;;4.88;1.10;;;;;;;1.16;100.00;99500.78;10454120;28;20420;-73
2021/12/21 06:56:58;;;;;;;;;;;;;;;2.44;100.00;99647.91;10452657;28;20527;-73
2021/12/21 07:01:59;;;;;;;1.73;0.55;;;;;;;2.18;100.00;99611.66;10452865;28;19912;-73
2021/12/21 07:07:00;;;;;;;2.13;0.60;;;;;;;1.64;100.00;99509.84;10435977;28;20049;-74
2021/12/21 07:12:24;;;;;;;1.92;0.55;;;;;;;1.56;99.84;99481.72;10452995;28;20037;-73
2021/12/21 07:22:45;;;;;;;0.57;0.20;;;;;;;2.15;99.69;99566.56;10461720;28;20134;-73
2021/12/21 07:27:46;;;;;;;0.30;0.10;;;;;;;2.04;100.00;99551.78;10458718;28;20134;-73
2021/12/21 07:32:47;;;;;;;0.15;0.00;;;;;;;2.67;100.00;99687.88;10460335;28;20061;-73
2021/12/21 07:37:48;;;;;;;0.68;0.10;;;;;;;2.60;100.00;99671.81;10459619;28;20037;-73
2021/12/21 07:42:49;;;;;;;1.15;0.20;;;;;;;2.20;100.00;99599.25;10459847;28;20033;-75
2021/12/21 07:47:50;;;;;;;1.00;0.20;;;;;;;2.73;100.00;99685.53;10459498;28;20045;-73
2021/12/21 07:52:54;;;;;;;0.55;0.20;;;;;;;2.83;100.00;99701.28;10458836;28;20053;-73
2021/12/21 07:57:55;;;;;;;0.63;0.10;;;;;;;2.44;100.00;99632.19;10459482;28;20080;-73
2021/12/21 08:02:57;;;;;;;0.40;0.10;;;;;;;2.51;100.00;99628.03;10458582;28;20052;-73
2021/12/21 08:08:08;;;;;;;0.20;0.00;;;;;;;2.27;100.00;99594.31;10459182;28;20049;-73
2021/12/21 08:13:09;;;;;;;0.40;0.10;;;;;;;2.62;100.00;99650.72;10458844;28;20037;-73
2021/12/21 08:18:10;;;;;;;0.95;0.30;;;;;;;2.73;100.00;99642.75;10458532;28;20039;-73
2021/12/21 08:23:11;;;;;;;0.35;0.10;;;;;;;2.72;100.00;99662.91;10458571;28;20040;-73
2021/12/21 08:28:12;;;;;;;0.35;0.10;;;;;;;2.59;100.00;99648.38;10456930;28;20132;-73
2021/12/21 08:33:13;;;;;;;1.65;0.15;;;;;;;2.94;100.00;99713.47;10457879;28;20512;-73
2021/12/21 08:38:18;;;;;;;0.13;0.00;;;;;;;2.78;100.00;99681.66;10457318;28;20056;-73
2021/12/21 08:43:24;;;;;;;2.08;0.10;;;;;;;2.91;100.00;99734.75;10457561;28;20048;-73
2021/12/21 08:48:26;;;;;;;0.17;0.00;;;;;;;2.76;100.00;99715.09;10457060;28;20056;-73
2021/12/21 08:53:27;;;;;;;0.00;0.00;;;;;;;1.96;100.00;99575.19;10457158;28;20041;-73
2021/12/21 08:58:28;;;;;;;0.40;0.10;;;;;;;2.96;100.00;99745.66;10457456;28;20578;-73
2021/12/21 09:03:29;;;;;;;0.80;0.10;;;;;;;2.70;100.00;99692.84;10457269;28;20124;-73
2021/12/21 09:08:30;;;;;;;0.50;0.10;;;;;;;2.99;100.00;99732.25;10456996;28;20032;-74
2021/12/21 09:13:33;;;;;;;0.10;0.00;;;;;;;2.72;100.00;99690.91;10456356;28;20052;-73
2021/12/21 09:18:33;;;;;;;0.95;0.10;;;;;;;2.38;100.00;99633.53;10439377;28;20040;-74
2021/12/21 09:23:34;;;;;;;0.20;0.10;;;;;;;2.05;100.00;99585.69;10455806;28;20119;-73
2021/12/21 09:28:35;;;;;;;0.43;0.20;;;;;;;2.45;99.98;99631.19;10438163;28;20124;-73
2021/12/21 09:33:36;;;;;;;0.25;0.10;;;;;;;3.24;99.99;99743.25;10455659;28;20047;-73
2021/12/21 09:38:37;;;;;;;0.82;0.15;;;;;;;2.44;99.81;99642.66;10455266;28;20043;-74
2021/12/21 09:43:40;;;;;;;0.60;0.20;;;;;;;3.03;100.00;99706.59;10456217;28;20136;-73
2021/12/21 09:48:41;;;;;;;0.45;0.10;;;;;;;3.23;99.65;99728.44;10454548;28;20416;-73
2021/12/21 09:53:43;;;;;;;0.57;0.17;;;;;;;3.27;99.82;99730.66;10454940;28;20044;-73
2021/12/21 09:58:44;;;;;;;1.95;0.20;;;;;;;3.46;99.72;99737.72;10454163;28;20040;-73
2021/12/21 10:03:45;;;;;;;5.18;2.58;;;;;;;3.63;99.23;99734.44;10454282;28;20068;-74
2021/12/21 10:08:46;;;;;;;4.47;2.03;;;;;;;2.66;98.69;99563.78;10453883;28;20047;-74
2021/12/21 10:13:47;;;;;;;3.40;1.52;;;;;;;2.97;98.91;99619.59;10454826;28;20508;-74
2021/12/21 10:18:49;;;;;;;0.98;0.45;;;;;;;3.77;97.91;99738.44;10454235;28;20033;-73
2021/12/21 10:23:51;;;;;;;1.33;0.60;;;;;;;3.78;97.96;99747.97;10454401;28;20485;-74
2021/12/21 10:29:01;;;;;;;1.67;0.70;;;;;;;3.49;98.26;99694.63;10436645;28;20037;-73
2021/12/21 10:34:05;;;;;;;1.20;0.55;;;;;;;3.98;97.80;99754.06;10453472;28;20123;-74
2021/12/21 10:39:06;;;;;;;3.13;1.53;;;;;;;3.67;97.01;99706.06;10453887;28;20033;-73
2021/12/21 10:44:10;;;;;;;3.67;1.55;;;;;;;4.09;97.00;99774.91;10453829;28;20478;-73
2021/12/21 10:49:17;;;;;;;0.93;0.50;;;;;;;4.05;96.93;99772.72;10439896;28;20056;-73
2021/12/21 10:54:36;;;;;;;0.57;0.22;;;;;;;3.51;96.55;99701.38;10462219;28;20279;-73
2021/12/21 10:59:42;;;;;;;1.40;0.70;;;;;;;2.65;96.94;99590.97;10462521;28;20041;-74
2021/12/21 11:04:47;;;;;;;2.58;1.40;;;;;;;3.83;96.95;99802.75;10460342;28;20048;-73
2021/12/21 11:09:58;;;;;;;;;;;;;;;3.92;96.94;99787.91;10461567;28;20053;-73
2021/12/21 11:15:01;;;;;;;3.35;1.17;;;;;;;3.48;96.93;99775.19;10460490;28;19912;-73
2021/12/21 11:20:02;;;;;;;1.92;1.00;;;;;;;3.40;96.50;99777.66;10460909;28;20102;-73
2021/12/21 11:25:04;;;;;;;5.10;1.30;;;;;;;3.61;96.62;99811.69;10460184;28;20045;-73
2021/12/21 11:30:14;;;;;;;2.83;1.20;;;;;;;3.59;96.62;99817.09;10460402;28;20040;-73
2021/12/21 11:40:22;;;;;;;2.95;1.63;;;;;;;3.70;96.36;99816.13;10460155;28;20037;-73
2021/12/21 11:45:41;;;;;;;2.72;1.20;;;;;;;2.92;95.58;99695.25;10459334;28;20139;-73
2021/12/21 11:50:45;;;;;;;3.40;1.85;;;;;;;2.80;95.19;99719.09;10458707;28;20052;-74
2021/12/21 11:55:49;;;;;;;3.75;2.13;;;;;;;3.69;95.27;99876.69;10459311;28;20043;-73
2021/12/21 12:01:00;;;;;;;4.40;2.90;;;;;;;3.65;95.71;99894.53;10457607;28;20041;-74
2021/12/21 12:06:04;;;;;;;3.83;2.30;;;;;;;3.04;95.36;99816.66;10459383;28;20041;-73
2021/12/21 12:11:04;;;;;;;3.90;2.40;;;;;;;3.42;95.74;99899.97;10457386;28;20071;-73
2021/12/21 12:16:14;;;;;;;4.25;2.67;;;;;;;3.59;95.53;99923.94;10459287;28;20067;-73
2021/12/21 12:21:30;;;;;;;3.90;2.45;;;;;;;3.30;95.06;99859.03;10440592;28;20480;-73
2021/12/21 12:26:36;;;;;;;5.47;2.88;;;;;;;3.71;95.32;99924.66;10457699;28;20049;-73
2021/12/21 12:31:40;;;;;;;5.25;2.67;;;;;;;3.40;94.84;99874.81;10457466;28;20079;-73
2021/12/21 12:36:50;;;;;;;4.03;2.65;;;;;;;3.70;94.69;99951.91;10470945;28;20478;-73
2021/12/21 12:41:51;;;;;;;5.90;2.97;;;;;;;3.32;94.80;99893.00;10480066;28;20045;-73
2021/12/21 12:46:58;;;;;;;4.80;3.03;;;;;;;3.39;94.74;99915.16;10457922;28;20124;-73
2021/12/21 12:52:19;;;;;;;5.38;3.22;;;;;;;3.58;94.61;99954.63;10456736;28;20056;-73
2021/12/21 12:57:29;;;;;;;5.30;3.25;;;;;;;2.58;94.53;99797.00;10456907;28;20060;-74
2021/12/21 13:02:30;;;;;;;5.18;3.60;;;;;;;2.69;94.30;99848.53;10456994;28;20526;-73
2021/12/21 13:07:31;;;;;;;7.50;4.10;;;;;;;3.05;94.17;99927.69;10456699;28;20130;-73
2021/12/21 13:12:31;;;;;;;11.52;7.30;;;;;;;3.18;93.96;99947.53;10455518;28;20562;-73
2021/12/21 13:17:32;;;;;;;10.55;5.88;;;;;;;3.27;93.94;99984.47;10456480;28;20413;-74
2021/12/21 13:22:33;;;;;;;5.60;3.55;;;;;;;2.69;94.04;99888.72;10456126;28;20036;-73
2021/12/21 13:27:34;;;;;;;6.22;3.70;;;;;;;2.66;94.44;99899.47;10455952;28;20408;-73
2021/12/21 13:32:35;;;;;;;6.75;3.80;;;;;;;2.93;93.94;99976.78;10479710;28;20119;-73
2021/12/21 13:37:36;;;;;;;9.88;6.43;;;;;;;2.54;94.37;99921.44;10497029;28;20045;-74
2021/12/21 13:42:37;;;;;;;12.85;9.45;;;;;;;2.70;94.42;99968.22;10476605;28;20041;-73
2021/12/21 13:47:50;;;;;;;12.35;8.13;;;;;;;2.39;94.10;99955.00;10454927;28;20144;-73
2021/12/21 13:52:59;;;;;;;12.60;8.50;;;;;;;2.60;93.65;99981.25;10454337;28;20060;-74
2021/12/21 13:58:05;;;;;;;13.10;8.52;;;;;;;2.79;93.53;100021.72;10462662;28;20049;-74
2021/12/21 14:03:33;;;;;;;13.48;8.77;;;;;;;1.70;93.38;99849.72;10490047;28;20064;-75
2021/12/21 14:08:35;;;;;;;18.20;8.73;;;;;;;2.58;93.53;100022.50;10462277;28;20074;-74
2021/12/21 14:13:42;;;;;;;12.50;7.88;;;;;;;2.68;93.51;100040.94;10495703;28;20083;-75
2021/12/21 14:18:57;;;;;;;13.15;8.13;;;;;;;1.63;93.32;99874.72;10469363;28;20052;-75
2021/12/21 14:24:03;;;;;;;12.23;7.28;;;;;;;1.67;93.24;99889.22;10495269;28;20060;-75
2021/12/21 14:29:08;;;;;;;14.35;8.57;;;;;;;2.48;93.63;100043.41;10496272;28;20048;-75
2021/12/21 14:34:10;;;;;;;15.52;6.88;;;;;;;2.31;93.99;100041.28;10478219;28;20075;-75
2021/12/21 14:39:13;;;;;;;10.65;6.28;;;;;;;1.74;94.63;99959.34;10495793;28;20040;-75
2021/12/21 14:44:23;;;;;;;9.48;6.35;;;;;;;1.98;94.77;100002.88;10496200;28;20048;-75
2021/12/21 14:49:33;;;;;;;10.88;6.75;;;;;;;2.24;95.16;100061.94;10487008;28;20063;-75
2021/12/21 14:54:50;;;;;;;11.65;7.32;;;;;;;2.07;95.13;100041.47;10476396;28;20076;-72
2021/12/21 14:59:51;;;;;;;12.10;7.60;;;;;;;2.25;94.72;100086.34;10494477;28;20393;-73
2021/12/21 15:04:57;;;;;;;12.73;8.43;;;;;;;2.09;94.60;100076.22;10494376;28;20044;-74
2021/12/21 15:10:02;;;;;;;13.18;7.63;;;;;;;1.82;94.01;100047.75;10494487;28;20055;-74
2021/12/21 15:15:05;;;;;;;12.40;8.35;;;;;;;2.00;93.37;100071.69;10472896;28;20577;-73
2021/12/21 15:20:09;;;;;;;13.35;7.88;;;;;;;1.95;92.95;100086.97;10476903;28;20054;-73
2021/12/21 15:25:12;;;;;;;12.20;7.32;;;;;;;1.63;92.34;100029.19;10481652;28;20048;-73
2021/12/21 15:30:16;;;;;;;12.73;8.43;;;;;;;1.39;92.09;100010.97;10495237;28;20523;-72
2021/12/21 15:35:18;;;;;;;11.15;7.20;;;;;;;1.86;91.81;100083.25;10497894;28;20271;-72
2021/12/21 15:40:23;;;;;;;12.35;8.20;;;;;;;1.82;91.46;100103.63;10500911;28;20040;-73
2021/12/21 15:45:25;;;;;;;12.80;8.15;;;;;;;1.50;91.41;100065.97;10500713;28;20068;-73
2021/12/21 15:50:28;;;;;;;14.10;8.85;;;;;;;1.51;90.78;100057.97;10500567;28;20063;-73
2021/12/21 15:55:29;;;;;;;13.50;8.25;;;;;;;1.76;90.83;100093.59;10501197;28;20135;-73
2021/12/21 16:00:30;;;;;;;12.55;8.10;;;;;;;1.69;90.61;100096.81;10497543;28;20105;-73
2021/12/21 16:05:30;;;;;;;13.38;8.55;;;;;;;1.21;90.63;100040.22;10469648;28;20040;-73
2021/12/21 16:10:31;;;;;;;12.48;8.70;;;;;;;1.51;91.11;100109.50;10500874;28;20036;-72
2021/12/21 16:15:32;;;;;;;16.38;8.77;;;;;;;0.47;90.91;99942.03;10473865;28;20051;-72
2021/12/21 16:20:33;;;;;;;13.68;8.60;;;;;;;1.52;91.11;100117.22;10441301;28;20416;-70
2021/12/21 16:25:34;;;;;;;17.05;10.05;;;;;;;0.12;90.60;99904.50;10483747;28;20093;-72
2021/12/21 16:30:35;;;;;;;13.25;8.80;;;;;;;1.39;90.75;100110.44;10491803;28;20086;-73
2021/12/21 16:35:36;;;;;;;15.57;8.90;;;;;;;0.59;90.49;99975.13;10497873;28;20139;-73
2021/12/21 16:40:41;;;;;;;14.50;8.43;;;;;;;1.36;90.20;100095.78;10496481;28;20055;-73
2021/12/21 16:45:42;;;;;;;13.88;8.27;;;;;;;-0.12;90.42;99881.00;10495625;28;20139;-72
2021/12/21 16:50:43;;;;;;;13.18;8.18;;;;;;;0.42;90.29;99979.81;10497324;28;20048;-71
2021/12/21 16:55:44;;;;;;;13.13;8.77;;;;;;;-0.20;90.78;99899.00;10476847;28;20629;-72
2021/12/21 17:00:45;;;;;;;14.02;8.93;;;;;;;1.01;91.17;100116.72;10472528;28;20036;-72
2021/12/21 17:05:46;;;;;;;13.35;8.23;;;;;;;0.76;91.58;100092.34;10489966;28;20435;-72
2021/12/21 17:10:50;;;;;;;16.67;10.88;;;;;;;-0.13;91.33;99972.50;10489854;28;20040;-72
2021/12/21 17:15:50;;;;;;;19.55;9.88;;;;;;;-0.17;92.41;99982.31;10490450;28;20490;-72
2021/12/21 17:20:51;;;;;;;15.70;10.05;;;;;;;0.49;92.86;100073.44;10487413;28;20036;-72
2021/12/21 17:25:52;;;;;;;15.60;10.02;;;;;;;0.53;92.33;100099.22;10487553;28;20047;-72
2021/12/21 17:30:53;;;;;;;22.52;12.25;;;;;;;0.45;92.66;100110.25;10491721;28;20101;-72
2021/12/21 17:35:58;;;;;;;21.27;12.07;;;;;;;0.32;92.70;100088.53;10492796;28;20040;-73
2021/12/21 17:40:59;;;;;;;28.85;13.55;;;;;;;-0.53;92.57;99955.25;10491593;28;20043;-72
2021/12/21 17:46:00;;;;;;;19.10;11.57;;;;;;;0.21;93.38;100096.31;10492131;28;20400;-72
2021/12/21 17:51:02;;;;;;;23.95;12.68;;;;;;;0.44;93.54;100120.78;10490357;28;20048;-72
2021/12/21 17:56:03;;;;;;;19.88;11.10;;;;;;;0.09;93.62;100084.94;10488962;28;20040;-72
2021/12/21 18:01:05;;;;;;;19.50;10.25;;;;;;;0.36;93.86;100129.19;10489148;28;20063;-70
2021/12/21 18:06:06;;;;;;;16.17;9.90;;;;;;;-0.34;93.88;100013.97;10487586;28;20076;-70
2021/12/21 18:11:07;;;;;;;16.67;10.38;;;;;;;0.33;93.89;100132.03;10489495;28;20469;-70
2021/12/21 18:16:08;;;;;;;19.63;11.95;;;;;;;-0.07;94.24;100079.94;10484565;28;20040;-70
2021/12/21 18:21:08;;;;;;;15.05;10.25;;;;;;;-0.48;94.61;99967.94;10485897;28;20036;-70
2021/12/21 18:26:09;;;;;;;18.00;9.85;;;;;;;-0.65;94.08;99950.88;10490200;28;20051;-70
2021/12/21 18:31:10;;;;;;;14.95;9.25;;;;;;;-0.12;93.74;100082.06;10485666;28;20385;-71
2021/12/21 18:36:11;;;;;;;19.40;9.57;;;;;;;0.27;93.99;100123.75;10491365;28;20070;-70
2021/12/21 18:41:12;;;;;;;22.60;9.75;;;;;;;0.43;94.35;100147.88;10486738;28;20033;-71
2021/12/21 18:46:13;;;;;;;16.30;9.52;;;;;;;0.43;94.93;100143.50;10485896;28;20135;-69
2021/12/21 18:51:19;;;;;;;15.30;9.20;;;;;;;0.26;94.16;100109.03;10495016;28;20470;-69
2021/12/21 18:56:20;;;;;;;14.52;9.90;;;;;;;-1.88;94.46;99766.38;10494854;28;20076;-69
2021/12/21 19:01:24;;;;;;;19.08;10.27;;;;;;;-0.53;95.18;99973.50;10489652;28;20088;-71
2021/12/21 19:06:26;;;;;;;16.38;9.70;;;;;;;-1.12;95.45;99868.09;10494185;28;20070;-70
2021/12/21 19:11:27;;;;;;;15.88;9.68;;;;;;;0.52;95.57;100133.34;10499329;28;20086;-69
2021/12/21 19:16:28;;;;;;;16.95;9.57;;;;;;;0.07;95.07;100052.88;10484243;28;20036;-70
2021/12/21 19:21:29;;;;;;;17.88;10.23;;;;;;;0.21;95.26;100075.41;10502045;28;20144;-72
2021/12/21 19:26:30;;;;;;;14.90;9.40;;;;;;;-0.36;94.98;99950.59;10500646;28;20046;-69
2021/12/21 19:31:31;;;;;;;16.95;9.18;;;;;;;0.37;94.24;100098.66;10483475;28;20041;-69
2021/12/21 19:36:32;;;;;;;16.65;9.48;;;;;;;-0.06;94.43;100054.66;10500396;28;20040;-69
2021/12/21 19:41:33;;;;;;;14.40;8.77;;;;;;;0.12;94.70;100096.94;10500901;28;20048;-69
2021/12/21 19:46:34;;;;;;;14.52;8.82;;;;;;;0.06;95.30;100098.22;10500812;28;20048;-69
2021/12/21 19:51:36;;;;;;;15.77;9.85;;;;;;;-0.25;95.40;100035.06;10492612;28;20063;-68
2021/12/21 19:56:37;;;;;;;16.98;10.45;;;;;;;0.27;96.22;100122.00;10497989;28;20495;-70
2021/12/21 20:01:37;;;;;;;16.02;9.50;;;;;;;0.51;95.89;100118.56;10479397;28;20037;-70
2021/12/21 20:06:38;;;;;;;17.55;9.55;;;;;;;-0.24;96.50;99979.31;10494116;28;20044;-70
2021/12/21 20:11:53;;;;;;;14.40;9.10;;;;;;;0.31;95.20;100070.38;10498561;28;20092;-69
2021/12/21 20:16:59;;;;;;;17.48;9.23;;;;;;;0.37;94.72;100107.34;10497553;28;20051;-70
2021/12/21 20:22:00;;;;;;;15.25;8.95;;;;;;;0.32;95.26;100106.81;10497644;28;20028;-70
2021/12/21 20:27:01;;;;;;;19.52;9.68;;;;;;;0.27;95.90;100101.09;10497694;28;20071;-70
2021/12/21 20:32:02;;;;;;;15.57;8.85;;;;;;;-0.01;95.76;100029.88;10500622;28;20040;-69
2021/12/21 20:37:06;;;;;;;14.00;8.30;;;;;;;0.31;95.89;100094.72;10499435;28;20044;-70
2021/12/21 20:42:08;;;;;;;13.43;8.55;;;;;;;0.21;95.10;100099.75;10498785;28;20504;-72
2021/12/21 20:47:09;;;;;;;14.82;8.80;;;;;;;-0.60;95.26;99959.22;10498902;28;20044;-69
2021/12/21 20:52:10;;;;;;;14.98;8.73;;;;;;;-0.70;94.64;99950.34;10498029;28;20496;-70
2021/12/21 20:57:11;;;;;;;16.17;9.50;;;;;;;-0.22;95.53;100030.56;10498632;28;20036;-69
2021/12/21 21:02:13;;;;;;;16.38;8.82;;;;;;;-0.26;94.42;100041.22;10497880;28;20048;-69
2021/12/21 21:07:14;;;;;;;14.07;8.90;;;;;;;-0.07;93.82;100103.44;10480601;28;20040;-69
2021/12/21 21:12:15;;;;;;;13.77;8.73;;;;;;;-1.66;94.38;99864.72;10496274;28;20040;-69
2021/12/21 21:17:16;;;;;;;16.92;8.98;;;;;;;-0.57;95.38;100042.50;10498647;28;20041;-69
2021/12/21 21:22:17;;;;;;;14.70;8.80;;;;;;;-1.42;95.07;99880.50;10497505;28;20040;-69
2021/12/21 21:27:18;;;;;;;16.77;9.77;;;;;;;-0.14;95.44;100086.53;10497060;28;20036;-69
2021/12/21 21:32:20;;;;;;;15.07;9.07;;;;;;;-0.18;95.54;100095.53;10496875;28;20047;-69
2021/12/21 21:37:21;;;;;;;12.70;7.97;;;;;;;-0.74;94.44;100014.94;10497414;28;20047;-69
2021/12/21 21:42:21;;;;;;;13.13;7.53;;;;;;;-1.50;94.48;99932.25;10496837;28;20378;-69
2021/12/21 21:47:22;;;;;;;14.60;8.35;;;;;;;-1.61;94.73;99908.72;10497190;28;20072;-69
2021/12/21 21:52:24;;;;;;;13.88;8.25;;;;;;;-0.75;95.20;100054.16;10497139;28;20060;-69
2021/12/21 21:57:25;;;;;;;13.15;7.97;;;;;;;-0.77;95.07;100048.22;10496282;28;20040;-70
2021/12/21 22:02:26;;;;;;;15.40;8.50;;;;;;;-0.47;95.46;100108.78;10496189;28;20109;-72
2021/12/21 22:07:27;;;;;;;13.13;8.35;;;;;;;-0.56;96.09;100067.66;10496223;28;20067;-69
2021/12/21 22:12:28;;;;;;;13.43;8.45;;;;;;;-0.98;95.89;99974.88;10495297;28;20044;-69
2021/12/21 22:17:29;;;;;;;13.80;8.60;;;;;;;-0.52;96.10;100056.06;10495877;28;20044;-70
2021/12/21 22:22:29;;;;;;;15.27;9.00;;;;;;;-0.24;95.65;100085.47;10496732;28;20044;-69
2021/12/21 22:27:30;;;;;;;16.90;8.30;;;;;;;-1.52;95.08;99895.06;10495170;28;20488;-69
2021/12/21 22:32:31;;;;;;;14.23;8.10;;;;;;;-0.38;95.42;100088.22;10496462;28;20032;-69
2021/12/21 22:37:32;;;;;;;14.65;8.20;;;;;;;-0.94;94.89;100018.06;10496174;28;20040;-69
2021/12/21 22:42:33;;;;;;;14.05;8.30;;;;;;;-0.50;95.83;100097.72;10495208;28;20127;-69
2021/12/21 22:47:34;;;;;;;16.20;9.20;;;;;;;-0.58;95.17;100094.78;10502502;28;20040;-69
2021/12/21 22:52:34;;;;;;;14.68;8.65;;;;;;;-1.18;95.08;99978.81;10502861;28;20163;-69
2021/12/21 22:57:35;;;;;;;14.98;9.43;;;;;;;-0.64;96.16;100053.44;10502974;28;20036;-69
2021/12/21 23:02:36;;;;;;;18.83;10.27;;;;;;;-0.60;96.20;100032.28;10484864;28;20044;-68
2021/12/21 23:07:37;;;;;;;20.40;9.95;;;;;;;-0.21;96.25;100087.88;10503249;28;20135;-68
2021/12/21 23:12:38;;;;;;;22.20;10.75;;;;;;;-0.44;96.68;100031.22;10502604;28;20050;-71
2021/12/21 23:17:39;;;;;;;18.35;10.90;;;;;;;0.07;95.94;100119.94;10501950;28;20139;-68
2021/12/21 23:22:39;;;;;;;18.40;11.20;;;;;;;-0.20;96.05;100050.41;10502016;28;20412;-70
2021/12/21 23:27:40;;;;;;;18.42;11.13;;;;;;;0.08;95.87;100062.38;10483694;28;20089;-68
2021/12/21 23:32:41;;;;;;;17.17;11.13;;;;;;;0.25;96.36;100081.25;10501446;28;20128;-68
2021/12/21 23:37:43;;;;;;;17.38;11.00;;;;;;;0.04;95.78;100055.69;10501854;28;20036;-70
2021/12/21 23:42:44;;;;;;;21.23;10.70;;;;;;;0.33;96.09;100098.06;10483041;28;20071;-71
2021/12/21 23:47:45;;;;;;;20.50;11.40;;;;;;;-0.83;95.40;99900.00;10501121;28;20523;-71
2021/12/21 23:52:46;;;;;;;20.05;11.25;;;;;;;-0.20;95.31;100026.91;10502232;28;20067;-70
2021/12/21 23:57:46;;;;;;;16.15;10.52;;;;;;;-0.09;95.84;100068.78;10501015;28;20044;-70
